New London, Minnesota
Current Conditions -  °F | °C
As of 6:33 PM on Saturday 25 Oct 2014 (Local Time) from KPEX Reporting Station
Clear Clear  
Wind Chill: 48°   Ceiling: Unl
Heat Index: 50°   Visibility: 10mi
Dew Point: 25°   Wind: 5mph
Humidity: 38%   Direction: 260°W
Pressure: 30.08"   Gusts: NA
Location:  45.3°N, 94.94°W
Report Text: KPEX 252333Z AUTO 26004KT 10SM CLR 10/M04 A3008 RMK AO2 T00981039
Loading
Personal Weather Stations






























Interactive Weather Map
Tropical Storm Tracking
New forecast layout! Learn more

10-Day Weather Forecast

Advertisements
Track Severe Weather on mobile